Time;durP1;ratioP1;P1;durP2;ratioP2;P2;SDS_P1;SDS_P2;PMS_P1;PMS_P2;Temp;Humidity;BMP_temperature;BMP_pressure;BME280_temperature;BME280_humidity;BME280_pressure;Samples;Min_cycle;Max_cycle;Signal;HPM_P1;HPM_P2
2023/10/03 00:02:56;;;;;;;11.82;7.13;;;19.50;99.90;;;;;;4942388;28;20107;-69
2023/10/03 00:05:34;;;;;;;13.47;7.47;;;19.60;99.90;;;;;;4978286;28;20479;-68
2023/10/03 00:08:04;;;;;;;18.75;6.97;;;19.50;99.90;;;;;;4945416;28;20090;-69
2023/10/03 00:10:32;;;;;;;11.73;6.60;;;19.30;99.90;;;;;;4944214;28;20090;-65
2023/10/03 00:12:59;;;;;;;10.65;6.55;;;18.90;99.90;;;;;;4943388;28;20023;-65
2023/10/03 00:15:25;;;;;;;9.68;7.20;;;19.20;99.90;;;;;;4948414;28;20077;-65
2023/10/03 00:17:52;;;;;;;13.93;7.28;;;19.10;99.90;;;;;;4949858;28;20751;-66
2023/10/03 00:20:18;;;;;;;;;;;19.10;99.90;;;;;;4949778;28;20031;-66
2023/10/03 00:22:45;;;;;;;14.13;6.90;;;19.00;99.90;;;;;;4951029;28;19914;-68
2023/10/03 00:25:17;;;;;;;10.80;8.48;;;19.10;99.90;;;;;;4949674;28;20042;-65
2023/10/03 00:27:51;;;;;;;14.15;7.70;;;19.20;99.90;;;;;;4950440;28;20031;-66
2023/10/03 00:30:23;;;;;;;16.83;8.30;;;19.40;99.90;;;;;;4950495;28;20037;-66
2023/10/03 00:32:51;;;;;;;14.70;8.20;;;19.20;99.90;;;;;;4948393;28;20484;-66
2023/10/03 00:35:17;;;;;;;18.83;9.75;;;19.30;99.90;;;;;;4948291;28;20035;-68
2023/10/03 00:37:46;;;;;;;13.68;8.45;;;19.20;99.90;;;;;;4951090;28;20039;-66
2023/10/03 00:42:50;;;;;;;12.52;8.95;;;19.20;99.90;;;;;;4949382;28;20062;-66
2023/10/03 00:45:21;;;;;;;15.82;10.10;;;19.20;99.90;;;;;;4948755;28;20027;-67
2023/10/03 00:47:58;;;;;;;13.02;9.45;;;19.20;99.90;;;;;;4949828;28;20300;-65
2023/10/03 00:50:26;;;;;;;13.00;9.48;;;19.00;99.90;;;;;;4952907;28;20029;-67
2023/10/03 00:53:09;;;;;;;15.35;8.93;;;19.00;99.90;;;;;;4948469;28;20035;-66
2023/10/03 00:55:39;;;;;;;17.40;10.02;;;19.00;99.90;;;;;;4977785;28;20027;-65
2023/10/03 01:00:43;;;;;;;16.08;10.13;;;19.00;99.90;;;;;;4947676;28;20035;-66
2023/10/03 01:03:28;;;;;;;13.63;10.73;;;19.00;99.90;;;;;;4946192;28;20035;-68
2023/10/03 01:05:58;;;;;;;12.32;10.25;;;19.10;99.90;;;;;;4948799;28;20102;-67
2023/10/03 01:08:24;;;;;;;16.15;10.95;;;19.00;99.90;;;;;;4945835;28;20030;-68
2023/10/03 01:10:55;;;;;;;16.25;11.23;;;19.00;99.90;;;;;;4948633;28;20515;-68
2023/10/03 01:13:21;;;;;;;19.02;11.20;;;19.20;99.90;;;;;;4931896;28;20082;-66
2023/10/03 01:15:52;;;;;;;13.45;9.88;;;19.10;99.90;;;;;;4949221;28;20086;-69
2023/10/03 01:18:20;;;;;;;13.80;11.40;;;19.00;99.90;;;;;;4950684;28;20047;-69
2023/10/03 01:20:50;;;;;;;16.23;11.80;;;19.00;99.90;;;;;;4948458;28;20766;-67
2023/10/03 01:23:19;;;;;;;13.13;10.55;;;19.20;99.90;;;;;;4947922;28;20410;-69
2023/10/03 01:25:45;;;;;;;14.70;10.13;;;19.20;99.90;;;;;;4947983;28;20531;-69
2023/10/03 01:28:12;;;;;;;18.20;11.55;;;19.00;99.90;;;;;;4945539;28;20030;-65
2023/10/03 01:30:40;;;;;;;12.85;10.50;;;19.10;99.90;;;;;;4949173;28;20094;-65
2023/10/03 01:33:07;;;;;;;14.50;11.05;;;18.90;99.90;;;;;;4947892;28;20491;-70
2023/10/03 01:35:33;;;;;;;16.60;10.85;;;18.90;99.90;;;;;;4947137;28;20395;-70
2023/10/03 01:38:00;;;;;;;18.50;11.65;;;19.00;99.90;;;;;;4948875;28;20102;-65
2023/10/03 01:40:26;;;;;;;16.05;11.35;;;18.80;99.90;;;;;;4950650;28;20023;-68
2023/10/03 01:42:52;;;;;;;13.90;10.63;;;18.70;99.90;;;;;;4946859;28;20105;-69
2023/10/03 01:45:24;;;;;;;14.73;10.90;;;18.70;99.90;;;;;;4945139;28;20027;-67
2023/10/03 01:47:51;;;;;;;14.20;10.75;;;18.60;99.90;;;;;;4949198;28;20113;-65
2023/10/03 01:50:19;;;;;;;16.77;11.18;;;18.70;99.90;;;;;;4947577;28;20043;-66
2023/10/03 01:52:49;;;;;;;18.38;10.68;;;18.50;99.90;;;;;;4946039;28;20110;-66
2023/10/03 01:55:20;;;;;;;17.27;11.02;;;18.70;99.90;;;;;;4945497;28;20028;-65
2023/10/03 01:57:47;;;;;;;14.73;11.43;;;18.70;99.90;;;;;;4949702;28;20098;-65
2023/10/03 02:00:28;;;;;;;17.52;10.98;;;18.70;99.90;;;;;;4948063;28;20034;-65
2023/10/03 02:03:04;;;;;;;18.73;11.02;;;18.70;99.90;;;;;;4976334;28;20027;-65
2023/10/03 02:05:34;;;;;;;18.85;12.05;;;18.60;99.90;;;;;;4949629;28;20141;-65
2023/10/03 02:08:16;;;;;;;13.70;11.05;;;18.50;99.90;;;;;;4947679;28;20019;-67
2023/10/03 02:10:48;;;;;;;16.75;11.27;;;18.40;99.90;;;;;;4944758;28;20118;-70
2023/10/03 02:13:17;;;;;;;17.33;11.18;;;18.40;99.90;;;;;;4946169;28;20027;-70
2023/10/03 02:15:49;;;;;;;21.27;11.65;;;18.50;99.90;;;;;;4947763;28;20513;-69
2023/10/03 02:18:18;;;;;;;16.42;11.32;;;18.50;99.90;;;;;;4949751;28;20114;-67
2023/10/03 02:20:52;;;;;;;24.75;11.38;;;18.50;99.90;;;;;;4948879;28;20027;-67
2023/10/03 02:23:23;;;;;;;15.15;11.40;;;18.40;99.90;;;;;;4947743;28;20118;-67
2023/10/03 02:25:50;;;;;;;15.40;11.63;;;18.30;99.90;;;;;;4976355;28;20035;-66
2023/10/03 02:28:16;;;;;;;17.05;11.70;;;18.40;99.90;;;;;;4949480;28;20027;-69
2023/10/03 02:30:42;;;;;;;;;;;18.30;99.90;;;;;;4947949;28;20578;-66
2023/10/03 02:33:17;;;;;;;15.32;11.52;;;18.30;99.90;;;;;;4948471;28;19966;-70
2023/10/03 02:35:47;;;;;;;15.82;11.43;;;18.30;99.90;;;;;;4947677;28;20026;-69
2023/10/03 02:38:17;;;;;;;14.90;11.43;;;18.30;99.90;;;;;;4946853;28;20529;-69
2023/10/03 02:40:43;;;;;;;19.02;11.82;;;18.40;99.90;;;;;;4941296;28;20114;-67
2023/10/03 02:43:13;;;;;;;15.15;11.30;;;18.30;99.90;;;;;;4944577;28;20472;-65
2023/10/03 02:45:41;;;;;;;15.52;11.63;;;18.30;99.90;;;;;;4947036;28;20035;-67
2023/10/03 02:48:13;;;;;;;14.35;11.15;;;18.60;99.90;;;;;;4949039;28;20023;-66
2023/10/03 02:50:41;;;;;;;19.75;10.50;;;18.40;99.90;;;;;;4944064;28;20027;-69
2023/10/03 02:53:12;;;;;;;12.45;10.38;;;18.30;99.90;;;;;;4941370;28;20062;-68
2023/10/03 02:55:40;;;;;;;16.25;11.32;;;18.30;99.90;;;;;;4946214;28;20106;-66
2023/10/03 02:58:06;;;;;;;15.05;11.23;;;18.30;99.90;;;;;;4946590;28;20395;-66
2023/10/03 03:00:33;;;;;;;17.87;11.33;;;18.40;99.90;;;;;;4946865;28;20026;-66
2023/10/03 03:02:59;;;;;;;16.35;10.73;;;18.20;99.90;;;;;;4947417;28;20298;-65
2023/10/03 03:05:35;;;;;;;14.30;10.20;;;18.30;99.90;;;;;;4947868;28;20027;-65
2023/10/03 03:08:10;;;;;;;14.98;10.93;;;18.30;99.90;;;;;;4946572;28;20168;-65
2023/10/03 03:10:38;;;;;;;18.38;11.05;;;18.20;99.90;;;;;;4942528;28;20039;-65
2023/10/03 03:13:07;;;;;;;16.83;10.98;;;18.30;99.90;;;;;;4946950;28;20023;-69
2023/10/03 03:15:36;;;;;;;18.50;11.18;;;18.20;99.90;;;;;;4948222;28;20121;-66
2023/10/03 03:18:02;;;;;;;16.23;11.00;;;18.30;99.90;;;;;;4948680;28;20035;-66
2023/10/03 03:20:36;;;;;;;14.57;10.93;;;18.10;99.90;;;;;;4948146;28;20031;-66
2023/10/03 03:23:02;;;;;;;17.55;10.70;;;18.10;99.90;;;;;;4944055;28;20464;-66
2023/10/03 03:25:38;;;;;;;14.50;9.98;;;17.90;99.90;;;;;;4945704;28;20077;-68
2023/10/03 03:28:13;;;;;;;14.85;10.98;;;18.00;99.90;;;;;;4947464;28;20067;-67
2023/10/03 03:30:46;;;;;;;11.25;9.45;;;18.10;99.90;;;;;;4947799;28;20039;-65
2023/10/03 03:33:19;;;;;;;14.77;10.85;;;18.20;99.90;;;;;;4947272;28;20032;-68
2023/10/03 03:35:48;;;;;;;17.38;10.30;;;18.10;99.90;;;;;;4945537;28;20099;-66
2023/10/03 03:38:18;;;;;;;17.05;10.52;;;18.10;99.90;;;;;;4946557;28;20047;-66
2023/10/03 03:40:55;;;;;;;13.70;9.93;;;18.10;99.90;;;;;;4946761;28;20035;-66
2023/10/03 03:43:21;;;;;;;14.07;10.77;;;18.10;99.90;;;;;;4947618;28;20114;-66
2023/10/03 03:45:48;;;;;;;14.85;10.00;;;18.20;99.90;;;;;;4981964;28;20031;-68
2023/10/03 03:48:14;;;;;;;17.58;10.88;;;18.30;99.90;;;;;;4951657;28;20026;-68
2023/10/03 03:50:41;;;;;;;13.95;10.55;;;18.30;99.90;;;;;;4944295;28;20419;-66
2023/10/03 03:53:07;;;;;;;17.73;10.35;;;18.30;99.90;;;;;;4941525;28;20032;-65
2023/10/03 03:55:34;;;;;;;;;;;18.10;99.90;;;;;;4948006;28;20571;-68
2023/10/03 03:58:02;;;;;;;15.48;10.15;;;17.90;99.90;;;;;;4945849;28;19926;-69
2023/10/03 04:00:32;;;;;;;14.75;9.57;;;17.80;99.90;;;;;;4944317;28;20031;-66
2023/10/03 04:03:11;;;;;;;12.93;8.70;;;17.80;99.90;;;;;;4948360;28;20521;-67
2023/10/03 04:05:37;;;;;;;14.75;10.20;;;17.80;99.90;;;;;;4949726;28;20027;-66
2023/10/03 04:08:04;;;;;;;19.42;10.32;;;17.70;99.90;;;;;;4977052;28;20031;-65
2023/10/03 04:10:30;;;;;;;;;;;17.60;99.90;;;;;;4942150;28;20386;-64
2023/10/03 04:12:56;;;;;;;15.63;10.15;;;17.60;99.90;;;;;;4944555;28;20370;-65
2023/10/03 04:15:23;;;;;;;16.40;9.55;;;17.50;99.90;;;;;;4952144;28;20081;-65
2023/10/03 04:17:49;;;;;;;12.52;9.50;;;17.50;99.90;;;;;;4946306;28;20071;-64
2023/10/03 04:22:51;;;;;;;16.73;10.38;;;;;;;;;;4946356;28;20589;-66
2023/10/03 04:25:19;;;;;;;14.52;9.27;;;17.40;99.90;;;;;;4939796;28;20027;-68
2023/10/03 04:27:47;;;;;;;12.27;8.90;;;17.50;99.90;;;;;;4944101;28;20035;-68
2023/10/03 04:30:13;;;;;;;20.15;9.18;;;17.30;99.90;;;;;;4946928;28;20031;-66
2023/10/03 04:32:47;;;;;;;16.65;9.57;;;17.40;99.90;;;;;;4943396;28;20249;-70
2023/10/03 04:35:20;;;;;;;12.38;8.75;;;17.50;99.90;;;;;;4950791;28;20120;-66
2023/10/03 04:37:48;;;;;;;15.38;9.07;;;17.60;99.90;;;;;;4947845;28;20050;-69
2023/10/03 04:40:21;;;;;;;15.75;8.38;;;17.50;99.90;;;;;;4945575;28;20037;-67
2023/10/03 04:42:47;;;;;;;16.30;9.20;;;17.30;99.90;;;;;;4942614;28;20035;-66
2023/10/03 04:45:14;;;;;;;14.38;9.48;;;17.40;99.90;;;;;;4944590;28;20148;-66
2023/10/03 04:47:45;;;;;;;13.82;8.10;;;17.60;99.90;;;;;;4948759;28;20035;-66
2023/10/03 04:50:11;;;;;;;18.73;8.27;;;18.00;99.90;;;;;;4943261;28;20034;-68
2023/10/03 04:52:38;;;;;;;15.23;8.63;;;18.00;99.90;;;;;;4944155;28;20118;-69
2023/10/03 04:55:04;;;;;;;13.18;8.50;;;17.90;99.90;;;;;;4947893;28;20039;-69
2023/10/03 04:57:30;;;;;;;15.18;8.80;;;17.90;99.90;;;;;;4948498;28;20049;-70
2023/10/03 04:59:56;;;;;;;10.60;8.10;;;18.00;99.90;;;;;;4940047;28;20039;-65
2023/10/03 05:02:27;;;;;;;12.50;8.23;;;18.00;99.90;;;;;;4949494;28;20114;-66
2023/10/03 05:04:54;;;;;;;15.18;8.43;;;17.80;99.90;;;;;;4949281;28;20042;-67
2023/10/03 05:07:19;;;;;;;;;;;17.80;99.90;;;;;;4953716;28;20051;-67
2023/10/03 05:09:45;;;;;;;16.23;8.65;;;17.70;99.90;;;;;;4950032;28;19923;-68
2023/10/03 05:12:12;;;;;;;11.43;8.50;;;17.60;99.90;;;;;;4949406;28;20611;-66
2023/10/03 05:14:41;;;;;;;14.52;8.65;;;17.50;99.90;;;;;;4946199;28;20035;-64
2023/10/03 05:17:07;;;;;;;11.15;8.43;;;17.50;99.90;;;;;;4945055;28;20074;-64
2023/10/03 05:19:34;;;;;;;15.40;9.52;;;17.50;99.90;;;;;;4979328;28;20066;-64
2023/10/03 05:21:59;;;;;;;15.40;8.65;;;17.60;99.90;;;;;;4950236;28;20118;-65
2023/10/03 05:24:25;;;;;;;16.47;8.50;;;17.60;99.90;;;;;;4952982;28;20122;-66
2023/10/03 05:26:55;;;;;;;13.50;8.73;;;17.80;99.90;;;;;;4951035;28;20130;-63
2023/10/03 05:29:21;;;;;;;17.13;9.27;;;18.00;99.90;;;;;;4958187;28;20887;-66
2023/10/03 05:31:48;;;;;;;14.90;8.95;;;18.10;99.90;;;;;;4955487;28;20038;-65
2023/10/03 05:34:14;;;;;;;13.70;8.57;;;18.20;99.90;;;;;;4949744;28;20516;-65
2023/10/03 05:36:39;;;;;;;10.20;8.25;;;18.30;99.90;;;;;;4977515;28;20049;-66
2023/10/03 05:39:11;;;;;;;14.83;8.73;;;18.10;99.90;;;;;;4948036;28;20035;-65
2023/10/03 05:41:41;;;;;;;12.43;7.88;;;18.00;99.90;;;;;;4948680;28;20038;-65
2023/10/03 05:44:11;;;;;;;14.23;9.80;;;17.70;99.90;;;;;;4941717;28;20027;-69
2023/10/03 05:46:42;;;;;;;13.88;9.07;;;17.70;99.90;;;;;;4944883;28;20027;-67
2023/10/03 05:49:09;;;;;;;17.02;9.88;;;17.80;99.90;;;;;;4946653;28;20031;-65
2023/10/03 05:51:34;;;;;;;16.20;8.63;;;17.80;99.90;;;;;;4950708;28;20038;-64
2023/10/03 05:54:01;;;;;;;15.13;9.13;;;17.60;99.90;;;;;;4944620;28;20030;-67
2023/10/03 05:56:26;;;;;;;15.95;9.48;;;17.60;99.90;;;;;;4951129;28;20122;-65
2023/10/03 05:58:52;;;;;;;14.47;9.30;;;17.90;99.90;;;;;;4949662;28;20118;-66
2023/10/03 06:01:18;;;;;;;17.23;9.10;;;17.80;99.90;;;;;;4946105;28;20311;-70
2023/10/03 06:03:43;;;;;;;14.93;8.87;;;17.70;99.90;;;;;;4949090;28;20533;-67
2023/10/03 06:06:10;;;;;;;13.33;8.50;;;17.70;99.90;;;;;;4951487;28;20023;-69
2023/10/03 06:08:35;;;;;;;15.80;9.20;;;17.70;99.90;;;;;;4947886;28;20027;-70
2023/10/03 06:11:05;;;;;;;15.37;9.07;;;18.00;99.90;;;;;;4943253;28;20037;-71
2023/10/03 06:13:34;;;;;;;10.88;8.35;;;17.90;99.90;;;;;;4942416;28;20212;-70
2023/10/03 06:16:00;;;;;;;17.05;9.25;;;18.10;99.90;;;;;;4949518;28;20646;-65
2023/10/03 06:18:28;;;;;;;14.50;8.63;;;17.90;99.90;;;;;;4949249;28;20538;-71
2023/10/03 06:20:56;;;;;;;18.58;8.88;;;17.90;99.90;;;;;;4947570;28;20035;-72
2023/10/03 06:23:22;;;;;;;11.05;8.70;;;17.80;99.90;;;;;;4975985;28;20031;-71
2023/10/03 06:25:48;;;;;;;13.88;8.63;;;18.00;99.90;;;;;;4945325;28;20035;-66
2023/10/03 06:28:13;;;;;;;15.80;8.67;;;18.10;99.90;;;;;;4947374;28;20081;-67
2023/10/03 06:30:39;;;;;;;12.93;9.23;;;18.00;99.90;;;;;;4946965;28;20092;-71
2023/10/03 06:33:07;;;;;;;13.75;8.63;;;18.10;99.90;;;;;;4949925;28;20034;-68
2023/10/03 06:35:32;;;;;;;11.82;8.38;;;18.20;99.90;;;;;;4950477;28;20763;-66
2023/10/03 06:37:58;;;;;;;13.20;8.57;;;18.30;99.90;;;;;;4949046;28;20090;-67
2023/10/03 06:40:24;;;;;;;14.10;9.53;;;18.50;99.90;;;;;;4948807;28;20264;-78
2023/10/03 06:42:50;;;;;;;14.43;8.40;;;18.50;99.90;;;;;;4950398;28;20471;-80
2023/10/03 06:45:16;;;;;;;10.32;8.38;;;18.60;99.90;;;;;;4942647;28;20038;-80
2023/10/03 06:47:42;;;;;;;14.15;8.20;;;18.60;99.90;;;;;;4951706;28;20062;-83
2023/10/03 06:50:08;;;;;;;14.53;8.70;;;18.80;99.90;;;;;;4956682;28;20093;-68
2023/10/03 06:52:35;;;;;;;11.95;8.40;;;18.80;99.90;;;;;;4958702;28;20060;-79
2023/10/03 06:55:03;;;;;;;11.68;8.05;;;18.80;99.90;;;;;;4952483;28;20043;-82
2023/10/03 06:57:29;;;;;;;10.13;8.02;;;19.20;99.90;;;;;;4953666;28;20133;-73
2023/10/03 06:59:54;;;;;;;13.60;7.72;;;19.00;99.90;;;;;;4952019;28;20069;-81
2023/10/03 07:02:21;;;;;;;16.67;9.27;;;19.10;99.90;;;;;;4945261;28;20066;-69
2023/10/03 07:04:47;;;;;;;15.52;8.82;;;19.50;99.90;;;;;;4946738;28;20042;-80
2023/10/03 07:07:12;;;;;;;12.70;7.75;;;20.00;99.90;;;;;;4949049;28;20035;-78
2023/10/03 07:09:38;;;;;;;17.13;8.60;;;20.30;99.90;;;;;;4953790;28;20066;-73
2023/10/03 07:12:07;;;;;;;13.05;7.82;;;20.90;99.90;;;;;;4943903;28;21076;-79
2023/10/03 07:14:35;;;;;;;9.30;7.28;;;21.30;99.90;;;;;;4943795;28;20122;-80
2023/10/03 07:17:02;;;;;;;11.73;8.05;;;21.10;99.90;;;;;;4946120;28;20418;-82
2023/10/03 07:19:30;;;;;;;15.93;8.10;;;20.90;99.90;;;;;;4947023;28;20035;-78
2023/10/03 07:21:56;;;;;;;9.60;7.43;;;21.20;99.90;;;;;;4946818;28;20085;-78
2023/10/03 07:24:24;;;;;;;13.73;8.05;;;21.50;99.90;;;;;;4951062;28;20031;-75
2023/10/03 07:26:50;;;;;;;11.30;7.68;;;21.40;99.90;;;;;;4945154;28;20031;-75
2023/10/03 07:29:17;;;;;;;12.93;7.57;;;21.10;99.90;;;;;;4953037;28;20114;-81
2023/10/03 07:31:43;;;;;;;11.27;6.90;;;20.90;99.90;;;;;;4950972;28;20039;-83
2023/10/03 07:34:09;;;;;;;24.10;7.32;;;20.70;99.90;;;;;;4944129;28;20042;-74
2023/10/03 07:36:34;;;;;;;10.57;7.55;;;20.90;99.90;;;;;;4947352;28;20103;-69
2023/10/03 07:39:00;;;;;;;14.82;7.63;;;21.30;99.90;;;;;;4948245;28;20050;-78
2023/10/03 07:41:27;;;;;;;7.70;6.25;;;21.10;99.90;;;;;;4945862;28;20117;-79
2023/10/03 07:43:52;;;;;;;;;;;21.40;99.90;;;;;;4950921;28;20081;-82
2023/10/03 07:46:23;;;;;;;15.63;7.20;;;21.40;99.90;;;;;;4944855;28;20312;-69
2023/10/03 07:48:52;;;;;;;10.27;6.93;;;21.80;99.90;;;;;;4947768;28;20114;-73
2023/10/03 07:51:19;;;;;;;9.93;6.72;;;22.20;99.90;;;;;;4946918;28;20471;-73
2023/10/03 07:53:47;;;;;;;13.82;6.90;;;22.00;99.90;;;;;;4944270;28;20034;-67
2023/10/03 07:56:29;;;;;;;33.95;7.93;;;21.90;99.90;;;;;;4947404;28;20034;-72
2023/10/03 07:58:56;;;;;;;11.93;6.47;;;21.80;99.90;;;;;;4948004;28;20032;-76
2023/10/03 08:01:24;;;;;;;;;;;22.00;99.90;;;;;;4947837;28;20036;-71
2023/10/03 08:03:53;;;;;;;9.70;7.00;;;22.50;99.90;;;;;;4950381;28;19911;-76
2023/10/03 08:06:20;;;;;;;9.00;6.85;;;22.80;99.90;;;;;;4943045;28;20367;-73
2023/10/03 08:08:46;;;;;;;8.90;6.03;;;24.50;97.50;;;;;;4947265;28;20146;-77
2023/10/03 08:11:13;;;;;;;11.27;5.88;;;26.20;92.40;;;;;;4942869;28;20126;-71
2023/10/03 08:13:41;;;;;;;9.93;5.70;;;27.40;87.80;;;;;;4947249;28;20050;-74
2023/10/03 08:16:07;;;;;;;7.95;5.65;;;27.30;85.60;;;;;;4976709;28;20042;-69
2023/10/03 08:18:36;;;;;;;16.38;6.43;;;27.20;84.90;;;;;;4949267;28;20054;-75
2023/10/03 08:21:03;;;;;;;11.43;5.60;;;26.80;85.90;;;;;;4942485;28;20078;-76
2023/10/03 08:23:33;;;;;;;10.13;5.57;;;27.70;83.20;;;;;;4951915;28;20574;-74
2023/10/03 08:26:02;;;;;;;13.40;8.55;;;28.50;82.50;;;;;;4952381;28;20027;-74
2023/10/03 08:28:29;;;;;;;9.80;5.97;;;29.40;77.10;;;;;;4951161;28;20075;-77
2023/10/03 08:30:56;;;;;;;9.57;5.88;;;29.70;75.10;;;;;;4949372;28;20111;-71
2023/10/03 08:33:22;;;;;;;8.35;5.63;;;28.90;76.00;;;;;;4950080;28;20031;-67
2023/10/03 08:35:48;;;;;;;8.77;6.05;;;28.20;77.60;;;;;;4947225;28;20511;-69
2023/10/03 08:38:14;;;;;;;7.72;5.53;;;28.00;80.30;;;;;;4952319;28;20302;-67
2023/10/03 08:40:42;;;;;;;21.23;5.55;;;27.60;79.50;;;;;;4956522;28;20411;-76
2023/10/03 08:43:11;;;;;;;9.55;5.15;;;28.80;77.70;;;;;;4954320;28;20031;-70
2023/10/03 08:45:52;;;;;;;8.65;5.40;;;29.10;76.00;;;;;;4950421;28;20042;-71
2023/10/03 08:48:26;;;;;;;13.10;5.57;;;30.20;74.10;;;;;;4952519;28;20118;-75
2023/10/03 08:50:56;;;;;;;12.40;6.70;;;29.60;73.90;;;;;;4949749;28;20036;-80
2023/10/03 08:53:29;;;;;;;11.45;5.72;;;29.40;73.80;;;;;;4952732;28;20027;-78
2023/10/03 08:55:59;;;;;;;9.00;5.55;;;30.10;73.70;;;;;;4956905;28;20049;-77
2023/10/03 08:58:26;;;;;;;8.57;5.80;;;30.10;74.10;;;;;;4951601;28;20126;-72
2023/10/03 09:00:58;;;;;;;10.23;5.72;;;29.70;75.30;;;;;;4952994;28;20506;-72
2023/10/03 09:03:46;;;;;;;10.40;5.68;;;30.60;72.70;;;;;;4950936;28;20027;-75
2023/10/03 09:06:19;;;;;;;;;;;32.00;69.70;;;;;;4956004;28;20038;-80
2023/10/03 09:09:07;;;;;;;8.93;4.90;;;32.30;67.80;;;;;;4951330;28;19918;-78
2023/10/03 09:11:41;;;;;;;9.98;5.28;;;31.60;68.80;;;;;;4949705;28;20839;-75
2023/10/03 09:14:07;;;;;;;11.52;5.40;;;31.80;67.70;;;;;;4953460;28;20086;-79
2023/10/03 09:16:38;;;;;;;10.40;5.90;;;31.70;67.70;;;;;;4956290;28;20031;-74
2023/10/03 09:19:05;;;;;;;7.07;5.38;;;30.70;69.00;;;;;;4951030;28;20786;-71
2023/10/03 09:21:31;;;;;;;9.20;5.40;;;31.40;68.30;;;;;;4954512;28;20039;-80
2023/10/03 09:24:12;;;;;;;;;;;31.60;68.20;;;;;;4950494;28;20035;-75
2023/10/03 09:26:45;;;;;;;10.43;5.25;;;33.00;66.70;;;;;;4950871;28;19918;-77
2023/10/03 09:29:29;;;;;;;7.97;5.43;;;32.10;66.30;;;;;;4949982;28;20026;-75
2023/10/03 09:32:12;;;;;;;7.07;5.25;;;29.60;72.00;;;;;;4946656;28;20039;-69
2023/10/03 09:34:41;;;;;;;9.88;4.88;;;28.40;75.50;;;;;;4953939;28;20526;-74
2023/10/03 09:37:07;;;;;;;13.85;5.10;;;27.70;78.10;;;;;;4951989;28;20031;-68
2023/10/03 09:39:57;;;;;;;;;;;27.40;79.80;;;;;;4950354;28;20043;-74
2023/10/03 09:42:23;;;;;;;7.70;4.63;;;27.10;79.80;;;;;;4955464;28;19941;-73
2023/10/03 09:44:49;;;;;;;8.73;5.03;;;26.70;80.90;;;;;;4949275;28;20033;-69
2023/10/03 09:47:19;;;;;;;11.70;5.53;;;26.90;81.50;;;;;;4947989;28;20059;-70
2023/10/03 09:49:47;;;;;;;8.75;5.70;;;26.60;83.00;;;;;;4947636;28;20506;-67
2023/10/03 09:52:22;;;;;;;13.20;5.78;;;26.50;81.80;;;;;;4947614;28;20039;-68
2023/10/03 09:54:53;;;;;;;8.00;5.63;;;25.90;83.10;;;;;;4948581;28;20037;-67
2023/10/03 09:57:23;;;;;;;7.55;5.65;;;26.10;82.90;;;;;;4949877;28;20035;-66
2023/10/03 09:59:49;;;;;;;7.90;5.00;;;26.10;83.20;;;;;;4984442;28;20042;-67
2023/10/03 10:05:21;;;;;;;7.32;5.35;;;25.80;83.70;;;;;;4949007;28;20031;-69
2023/10/03 10:08:06;;;;;;;8.07;5.43;;;25.70;87.40;;;;;;4954337;28;20035;-73
2023/10/03 10:10:33;;;;;;;10.27;5.85;;;25.70;85.50;;;;;;4949417;28;20686;-77
2023/10/03 10:13:24;;;;;;;11.02;5.22;;;25.40;84.40;;;;;;4945176;28;20034;-74
2023/10/03 10:16:07;;;;;;;11.38;4.80;;;25.30;85.20;;;;;;4949859;28;20089;-77
2023/10/03 10:18:45;;;;;;;9.63;5.00;;;25.30;85.60;;;;;;4949315;28;20462;-78
2023/10/03 10:21:50;;;;;;;10.60;5.13;;;25.20;85.30;;;;;;4950511;28;20023;-75
2023/10/03 10:24:23;;;;;;;7.40;5.22;;;25.20;86.30;;;;;;4948279;28;20047;-78
2023/10/03 10:26:52;;;;;;;16.60;5.22;;;25.20;86.60;;;;;;4953309;28;20110;-74
2023/10/03 10:29:25;;;;;;;9.75;5.78;;;25.30;86.60;;;;;;4954019;28;20060;-74
2023/10/03 10:31:59;;;;;;;10.38;5.10;;;25.10;86.50;;;;;;4947220;28;20036;-71
2023/10/03 10:34:29;;;;;;;6.43;4.95;;;25.10;87.10;;;;;;4950002;28;20085;-68
2023/10/03 10:37:15;;;;;;;8.85;5.38;;;24.90;87.00;;;;;;4948553;28;20411;-72
2023/10/03 10:40:11;;;;;;;7.03;4.40;;;24.90;86.30;;;;;;4943976;28;20046;-79
2023/10/03 10:42:59;;;;;;;6.38;4.75;;;24.90;86.10;;;;;;4947610;28;20027;-80
2023/10/03 10:45:37;;;;;;;5.35;4.30;;;24.90;85.40;;;;;;4950982;28;20075;-80
2023/10/03 10:48:05;;;;;;;6.97;4.38;;;25.00;85.80;;;;;;4949128;28;20633;-76
2023/10/03 10:51:07;;;;;;;8.98;5.00;;;24.90;86.40;;;;;;4946227;28;20028;-66
2023/10/03 10:53:46;;;;;;;9.50;4.95;;;25.00;87.30;;;;;;4947435;28;20050;-66
2023/10/03 10:56:13;;;;;;;10.77;4.32;;;25.00;86.60;;;;;;4951479;28;20049;-78
2023/10/03 10:59:04;;;;;;;6.70;4.80;;;25.20;86.80;;;;;;4946438;28;20046;-78
2023/10/03 11:01:37;;;;;;;7.85;4.55;;;25.20;88.20;;;;;;4979519;28;20039;-74
2023/10/03 11:04:03;;;;;;;6.65;4.75;;;25.30;87.30;;;;;;4947676;28;20511;-67
2023/10/03 11:06:29;;;;;;;8.02;4.93;;;25.30;88.70;;;;;;4944203;28;20113;-67
2023/10/03 11:08:54;;;;;;;7.05;5.22;;;25.20;87.80;;;;;;4948461;28;20533;-70
2023/10/03 11:11:20;;;;;;;6.43;4.77;;;25.30;87.60;;;;;;4946448;28;20031;-74
2023/10/03 11:13:50;;;;;;;9.50;5.22;;;25.40;86.40;;;;;;4946376;28;20291;-73
2023/10/03 11:16:26;;;;;;;6.97;4.45;;;25.40;86.40;;;;;;4960505;28;20472;-68
2023/10/03 11:18:56;;;;;;;9.00;4.87;;;25.50;85.40;;;;;;4948560;28;20031;-77
2023/10/03 11:21:23;;;;;;;7.15;4.40;;;25.40;85.30;;;;;;4945574;28;20568;-70
2023/10/03 11:24:18;;;;;;;9.23;4.97;;;25.50;85.80;;;;;;4953565;28;20038;-75
2023/10/03 11:27:05;;;;;;;6.32;4.93;;;25.40;85.80;;;;;;4951806;28;20031;-77
2023/10/03 11:29:46;;;;;;;7.38;4.45;;;25.30;87.10;;;;;;4950009;28;20101;-74
2023/10/03 11:32:25;;;;;;;15.25;5.70;;;25.40;86.70;;;;;;4951018;28;20067;-72
2023/10/03 11:34:52;;;;;;;7.88;4.78;;;25.50;86.60;;;;;;4949196;28;20043;-72
2023/10/03 11:37:34;;;;;;;7.50;4.85;;;25.40;86.40;;;;;;4948095;28;20416;-67
2023/10/03 11:40:06;;;;;;;6.45;4.72;;;25.60;86.60;;;;;;4953722;28;20073;-76
2023/10/03 11:42:31;;;;;;;8.80;5.20;;;25.60;86.20;;;;;;4947288;28;20034;-76
2023/10/03 11:45:00;;;;;;;8.75;5.50;;;25.70;87.60;;;;;;4949172;28;20030;-81
2023/10/03 11:47:27;;;;;;;7.00;5.00;;;25.80;86.20;;;;;;4953901;28;20690;-74
2023/10/03 11:49:52;;;;;;;5.68;4.60;;;26.10;85.50;;;;;;4948536;28;20043;-79
2023/10/03 11:52:18;;;;;;;14.50;4.77;;;26.10;85.10;;;;;;4945692;28;20036;-70
2023/10/03 11:54:47;;;;;;;11.13;5.18;;;26.20;84.90;;;;;;4946796;28;20287;-76
2023/10/03 11:57:13;;;;;;;10.15;5.00;;;26.20;84.60;;;;;;4945726;28;20040;-80
2023/10/03 11:59:40;;;;;;;;;;;26.20;84.40;;;;;;4978190;28;20043;-80
2023/10/03 12:02:06;;;;;;;9.02;4.88;;;26.30;83.30;;;;;;4949895;28;19914;-77
2023/10/03 12:04:34;;;;;;;7.88;4.68;;;26.40;84.10;;;;;;4953700;28;20502;-77
2023/10/03 12:07:01;;;;;;;8.02;5.43;;;26.40;85.30;;;;;;4948929;28;20031;-78
2023/10/03 12:09:27;;;;;;;;;;;26.50;83.60;;;;;;4947744;28;20043;-80
2023/10/03 12:11:53;;;;;;;10.13;5.40;;;26.60;82.30;;;;;;4948383;28;20031;-79
2023/10/03 12:14:18;;;;;;;11.38;4.82;;;26.70;83.90;;;;;;4980183;28;20107;-81
2023/10/03 12:16:51;;;;;;;11.20;4.13;;;26.80;82.70;;;;;;4955657;28;20308;-81
2023/10/03 12:19:19;;;;;;;5.50;4.88;;;26.80;81.60;;;;;;4953797;28;20039;-72
2023/10/03 12:21:45;;;;;;;6.88;5.07;;;26.60;81.60;;;;;;4952468;28;20070;-79
2023/10/03 12:24:11;;;;;;;9.43;4.82;;;26.70;81.40;;;;;;4955303;28;20031;-79
2023/10/03 12:26:36;;;;;;;6.65;4.18;;;26.50;82.70;;;;;;4955023;28;20507;-75
2023/10/03 12:29:04;;;;;;;9.77;5.35;;;26.40;83.00;;;;;;4957035;28;20039;-80
2023/10/03 12:31:31;;;;;;;7.75;4.35;;;26.40;83.50;;;;;;4949488;28;20027;-78
2023/10/03 12:33:58;;;;;;;8.70;4.45;;;26.50;82.40;;;;;;4954099;28;20062;-79
2023/10/03 12:36:26;;;;;;;7.78;4.78;;;26.40;83.30;;;;;;4951840;28;20074;-79
2023/10/03 12:38:52;;;;;;;9.80;4.72;;;26.50;83.40;;;;;;4948517;28;20453;-69
2023/10/03 12:41:19;;;;;;;15.05;5.05;;;26.60;83.60;;;;;;4952078;28;20487;-76
2023/10/03 12:43:48;;;;;;;7.70;4.78;;;26.70;83.80;;;;;;4943026;28;20895;-77
2023/10/03 12:46:14;;;;;;;7.03;4.32;;;26.80;81.70;;;;;;4950201;28;20046;-77
2023/10/03 12:48:40;;;;;;;5.15;4.03;;;26.80;82.40;;;;;;4986945;28;20411;-79
2023/10/03 12:51:06;;;;;;;;;;;26.90;82.80;;;;;;4952924;28;20039;-78
2023/10/03 12:53:36;;;;;;;5.38;4.53;;;26.80;82.00;;;;;;4945230;28;19914;-76
2023/10/03 12:56:08;;;;;;;7.95;4.40;;;26.70;84.10;;;;;;4954513;28;20031;-80
2023/10/03 12:58:37;;;;;;;8.50;5.45;;;26.60;83.30;;;;;;4951376;28;20114;-75
2023/10/03 13:01:04;;;;;;;9.20;5.00;;;26.70;83.30;;;;;;4951747;28;20023;-79
2023/10/03 13:03:31;;;;;;;7.60;4.82;;;26.70;84.00;;;;;;4951691;28;20114;-72
2023/10/03 13:05:56;;;;;;;7.07;4.55;;;26.50;84.00;;;;;;4953062;28;20027;-77